EZY1T EGKK-EGKK
Flight info
| Callsign | EZY1T |
|---|---|
| Flight time | 0h 15m |
| Altitude | 2000 |
| Route | IFR CCTS |
| Aircraft | A20N/M-VGDW/C |
Departure
| Time | 2026-05-06 17:42 |
|---|---|
| Airport | London Gatwick Airport (EGKK) |
Arrival
| Time | 2026-05-06 17:57 |
|---|---|
| Airport | London Gatwick Airport (EGKK) |
| Time | Latitude | Longitude | Altitude | Speed | Heading |
|---|---|---|---|---|---|
| 2026-05-06 17:21 | 51.16196 | -0.18346 | 200 ft | 0 kts | 256° |
| 2026-05-06 17:29 | 51.16198 | -0.18335 | 200 ft | 2 kts | 254° |
| 2026-05-06 17:29 | 51.16202 | -0.18311 | 200 ft | 2 kts | 257° |
| 2026-05-06 17:29 | 51.16205 | -0.18288 | 200 ft | 2 kts | 256° |
| 2026-05-06 17:29 | 51.16209 | -0.18265 | 200 ft | 2 kts | 257° |
| 2026-05-06 17:30 | 51.16213 | -0.18242 | 200 ft | 2 kts | 256° |
| 2026-05-06 17:30 | 51.16217 | -0.18221 | 200 ft | 2 kts | 216° |
| 2026-05-06 17:30 | 51.16232 | -0.18216 | 200 ft | 2 kts | 163° |
| 2026-05-06 17:30 | 51.16244 | -0.18222 | 200 ft | 0 kts | 168° |
| 2026-05-06 17:31 | 51.16246 | -0.18223 | 200 ft | 0 kts | 170° |
| 2026-05-06 17:32 | 51.16243 | -0.18222 | 200 ft | 1 kts | 170° |
| 2026-05-06 17:33 | 51.16222 | -0.18216 | 200 ft | 4 kts | 170° |
| 2026-05-06 17:33 | 51.16184 | -0.18206 | 199 ft | 6 kts | 170° |
| 2026-05-06 17:33 | 51.16126 | -0.18186 | 199 ft | 11 kts | 167° |
| 2026-05-06 17:33 | 51.16027 | -0.18147 | 200 ft | 15 kts | 166° |
| 2026-05-06 17:34 | 51.15915 | -0.18102 | 200 ft | 17 kts | 166° |
| 2026-05-06 17:34 | 51.15795 | -0.18064 | 199 ft | 18 kts | 167° |
| 2026-05-06 17:34 | 51.15692 | -0.18066 | 200 ft | 14 kts | 236° |
| 2026-05-06 17:34 | 51.15655 | -0.18221 | 200 ft | 15 kts | 222° |
| 2026-05-06 17:35 | 51.15554 | -0.18198 | 199 ft | 15 kts | 170° |
| 2026-05-06 17:35 | 51.15447 | -0.18166 | 199 ft | 12 kts | 166° |
| 2026-05-06 17:35 | 51.15354 | -0.18131 | 199 ft | 14 kts | 167° |
| 2026-05-06 17:36 | 51.15204 | -0.18084 | 199 ft | 12 kts | 166° |
| 2026-05-06 17:36 | 51.15134 | -0.18089 | 199 ft | 9 kts | 233° |
| 2026-05-06 17:36 | 51.15113 | -0.18203 | 199 ft | 11 kts | 257° |
| 2026-05-06 17:36 | 51.15096 | -0.18322 | 200 ft | 11 kts | 257° |
| 2026-05-06 17:37 | 51.15078 | -0.18458 | 200 ft | 14 kts | 258° |
| 2026-05-06 17:37 | 51.15054 | -0.18635 | 200 ft | 18 kts | 258° |
| 2026-05-06 17:37 | 51.15023 | -0.18852 | 200 ft | 21 kts | 257° |
| 2026-05-06 17:37 | 51.14989 | -0.19096 | 200 ft | 22 kts | 258° |
| 2026-05-06 17:38 | 51.14954 | -0.19342 | 200 ft | 23 kts | 257° |
| 2026-05-06 17:38 | 51.14919 | -0.19593 | 200 ft | 23 kts | 259° |
| 2026-05-06 17:38 | 51.14886 | -0.19843 | 200 ft | 23 kts | 253° |
| 2026-05-06 17:38 | 51.14851 | -0.20092 | 200 ft | 23 kts | 257° |
| 2026-05-06 17:39 | 51.14819 | -0.20342 | 200 ft | 23 kts | 258° |
| 2026-05-06 17:39 | 51.14782 | -0.20597 | 199 ft | 23 kts | 258° |
| 2026-05-06 17:39 | 51.14729 | -0.20718 | 200 ft | 5 kts | 177° |
| 2026-05-06 17:39 | 51.14703 | -0.20710 | 199 ft | 0 kts | 167° |
| 2026-05-06 17:40 | 51.14673 | -0.20700 | 200 ft | 8 kts | 167° |
| 2026-05-06 17:40 | 51.14600 | -0.20666 | 199 ft | 11 kts | 125° |
| 2026-05-06 17:41 | 51.14610 | -0.20530 | 200 ft | 13 kts | 78° |
| 2026-05-06 17:41 | 51.14632 | -0.20360 | 200 ft | 29 kts | 80° |
| 2026-05-06 17:41 | 51.14756 | -0.19454 | 200 ft | 132 kts | 77° |
| 2026-05-06 17:41 | 51.15010 | -0.17684 | 517 ft | 184 kts | 75° |
| 2026-05-06 17:42 | 51.15276 | -0.15706 | 1633 ft | 194 kts | 76° |
| 2026-05-06 17:42 | 51.15507 | -0.13543 | 2293 ft | 202 kts | 78° |
| 2026-05-06 17:42 | 51.15728 | -0.11337 | 2788 ft | 205 kts | 78° |
| 2026-05-06 17:42 | 51.15948 | -0.09158 | 2988 ft | 195 kts | 78° |
| 2026-05-06 17:43 | 51.16160 | -0.07054 | 2990 ft | 192 kts | 78° |
| 2026-05-06 17:43 | 51.16365 | -0.04956 | 2991 ft | 192 kts | 82° |
| 2026-05-06 17:43 | 51.16140 | -0.02865 | 2984 ft | 199 kts | 117° |
| 2026-05-06 17:43 | 51.15127 | -0.01360 | 2992 ft | 205 kts | 153° |
| 2026-05-06 17:44 | 51.13780 | -0.00642 | 2998 ft | 207 kts | 164° |
| 2026-05-06 17:44 | 51.12380 | -0.00107 | 2996 ft | 207 kts | 166° |
| 2026-05-06 17:44 | 51.10954 | 0.00403 | 2994 ft | 208 kts | 166° |
| 2026-05-06 17:44 | 51.09559 | 0.00896 | 2994 ft | 208 kts | 166° |
| 2026-05-06 17:45 | 51.08139 | 0.01393 | 2993 ft | 208 kts | 166° |
| 2026-05-06 17:45 | 51.06724 | 0.01883 | 2990 ft | 208 kts | 166° |
| 2026-05-06 17:45 | 51.05318 | 0.02366 | 2990 ft | 208 kts | 166° |
| 2026-05-06 17:45 | 51.03894 | 0.02853 | 2990 ft | 207 kts | 166° |
| 2026-05-06 17:46 | 51.02488 | 0.03333 | 2992 ft | 207 kts | 166° |
| 2026-05-06 17:46 | 51.01096 | 0.03809 | 2991 ft | 206 kts | 166° |
| 2026-05-06 17:46 | 50.99693 | 0.04274 | 2991 ft | 206 kts | 171° |
| 2026-05-06 17:46 | 50.98271 | 0.04002 | 2988 ft | 211 kts | 207° |
| 2026-05-06 17:47 | 50.97142 | 0.02376 | 2993 ft | 231 kts | 242° |
| 2026-05-06 17:47 | 50.96711 | -0.00016 | 2997 ft | 232 kts | 269° |
| 2026-05-06 17:47 | 50.96712 | -0.02602 | 2995 ft | 231 kts | 275° |
| 2026-05-06 17:47 | 50.96795 | -0.05135 | 2992 ft | 231 kts | 276° |
| 2026-05-06 17:48 | 50.96889 | -0.07671 | 2991 ft | 231 kts | 276° |
| 2026-05-06 17:48 | 50.96982 | -0.10222 | 2990 ft | 230 kts | 276° |
| 2026-05-06 17:48 | 50.97069 | -0.12724 | 2988 ft | 229 kts | 276° |
| 2026-05-06 17:48 | 50.97158 | -0.15250 | 2988 ft | 230 kts | 276° |
| 2026-05-06 17:49 | 50.97250 | -0.17787 | 2989 ft | 230 kts | 276° |
| 2026-05-06 17:49 | 50.97342 | -0.20334 | 2989 ft | 231 kts | 276° |
| 2026-05-06 17:49 | 50.97436 | -0.22869 | 2991 ft | 231 kts | 276° |
| 2026-05-06 17:49 | 50.97531 | -0.25408 | 2992 ft | 231 kts | 276° |
| 2026-05-06 17:50 | 50.97700 | -0.27937 | 2988 ft | 229 kts | 288° |
| 2026-05-06 17:50 | 50.98294 | -0.30270 | 2996 ft | 227 kts | 299° |
| 2026-05-06 17:50 | 50.99019 | -0.32501 | 3000 ft | 227 kts | 301° |
| 2026-05-06 17:50 | 50.99762 | -0.34708 | 3001 ft | 226 kts | 301° |
| 2026-05-06 17:51 | 51.00508 | -0.36910 | 3000 ft | 226 kts | 301° |
| 2026-05-06 17:51 | 51.01253 | -0.39115 | 2997 ft | 225 kts | 301° |
| 2026-05-06 17:51 | 51.01990 | -0.41296 | 2995 ft | 225 kts | 301° |
| 2026-05-06 17:51 | 51.02724 | -0.43478 | 2994 ft | 225 kts | 301° |
| 2026-05-06 17:52 | 51.03553 | -0.45585 | 2987 ft | 223 kts | 317° |
| 2026-05-06 17:52 | 51.04853 | -0.46812 | 2997 ft | 219 kts | 344° |
| 2026-05-06 17:52 | 51.06338 | -0.47314 | 2992 ft | 218 kts | 1° |
| 2026-05-06 17:52 | 51.07770 | -0.46670 | 2993 ft | 217 kts | 32° |
| 2026-05-06 17:53 | 51.08975 | -0.45225 | 2999 ft | 218 kts | 39° |
| 2026-05-06 17:53 | 51.10107 | -0.43655 | 2998 ft | 217 kts | 41° |
| 2026-05-06 17:53 | 51.11241 | -0.42040 | 2994 ft | 215 kts | 41° |
| 2026-05-06 17:53 | 51.12279 | -0.40476 | 2952 ft | 202 kts | 56° |
| 2026-05-06 17:54 | 51.12751 | -0.38373 | 2715 ft | 203 kts | 82° |
| 2026-05-06 17:54 | 51.12897 | -0.36174 | 2503 ft | 200 kts | 80° |
| 2026-05-06 17:54 | 51.12993 | -0.34095 | 2410 ft | 177 kts | 84° |
| 2026-05-06 17:54 | 51.13071 | -0.32144 | 2002 ft | 172 kts | 82° |
| 2026-05-06 17:55 | 51.13226 | -0.30385 | 1803 ft | 156 kts | 76° |
| 2026-05-06 17:55 | 51.13444 | -0.28709 | 1575 ft | 155 kts | 74° |
| 2026-05-06 17:55 | 51.13670 | -0.27051 | 1281 ft | 153 kts | 73° |
| 2026-05-06 17:55 | 51.13918 | -0.25413 | 991 ft | 151 kts | 73° |
| 2026-05-06 17:56 | 51.14159 | -0.23808 | 706 ft | 144 kts | 74° |
| 2026-05-06 17:56 | 51.14360 | -0.22283 | 455 ft | 136 kts | 75° |
| 2026-05-06 17:56 | 51.14558 | -0.20869 | 268 ft | 125 kts | 75° |
| 2026-05-06 17:56 | 51.14738 | -0.19609 | 200 ft | 101 kts | 77° |
| 2026-05-06 17:57 | 51.14852 | -0.18785 | 200 ft | 52 kts | 73° |
| 2026-05-06 17:57 | 51.14941 | -0.18519 | 200 ft | 2 kts | 51° |
| 2026-05-06 17:57 | 51.14972 | -0.18457 | 200 ft | 32 kts | 52° |
| 2026-05-06 17:57 | 51.15075 | -0.18250 | 200 ft | 10 kts | 51° |
| 2026-05-06 17:58 | 51.15115 | -0.18226 | 200 ft | 4 kts | 293° |
| 2026-05-06 17:58 | 51.15104 | -0.18293 | 199 ft | 10 kts | 250° |
| 2026-05-06 17:58 | 51.15083 | -0.18417 | 199 ft | 12 kts | 258° |
| 2026-05-06 17:58 | 51.15063 | -0.18563 | 200 ft | 14 kts | 258° |
| 2026-05-06 17:59 | 51.15040 | -0.18727 | 200 ft | 15 kts | 258° |
| 2026-05-06 17:59 | 51.15015 | -0.18902 | 200 ft | 16 kts | 257° |
| 2026-05-06 17:59 | 51.14990 | -0.19090 | 200 ft | 18 kts | 258° |
| 2026-05-06 17:59 | 51.14962 | -0.19291 | 200 ft | 18 kts | 257° |
| 2026-05-06 18:00 | 51.14933 | -0.19501 | 199 ft | 19 kts | 258° |
| 2026-05-06 18:00 | 51.14903 | -0.19716 | 200 ft | 20 kts | 257° |
| 2026-05-06 18:00 | 51.14872 | -0.19939 | 200 ft | 21 kts | 256° |
| 2026-05-06 18:00 | 51.14840 | -0.20170 | 200 ft | 21 kts | 258° |
| 2026-05-06 18:01 | 51.14809 | -0.20403 | 200 ft | 21 kts | 259° |
| 2026-05-06 18:01 | 51.14776 | -0.20642 | 200 ft | 22 kts | 260° |
| 2026-05-06 18:01 | 51.14727 | -0.20725 | 200 ft | 5 kts | 163° |
| 2026-05-06 18:01 | 51.14702 | -0.20714 | 199 ft | 0 kts | 167° |
| 2026-05-06 18:25 | 51.14701 | -0.20714 | 199 ft | 0 kts | 167° |
| 2026-05-06 18:26 | 51.14678 | -0.20705 | 200 ft | 6 kts | 167° |
| 2026-05-06 18:26 | 51.14613 | -0.20678 | 200 ft | 12 kts | 144° |
| 2026-05-06 18:26 | 51.14609 | -0.20538 | 200 ft | 16 kts | 79° |
| 2026-05-06 18:26 | 51.14685 | -0.19983 | 200 ft | 101 kts | 76° |
| 2026-05-06 18:27 | 51.14912 | -0.18486 | 519 ft | 161 kts | 75° |
| 2026-05-06 18:27 | 51.15158 | -0.16659 | 1352 ft | 185 kts | 76° |
| 2026-05-06 18:27 | 51.15391 | -0.14786 | 1592 ft | 163 kts | 76° |
| 2026-05-06 18:27 | 51.15628 | -0.12932 | 1822 ft | 180 kts | 75° |
| 2026-05-06 18:28 | 51.15890 | -0.10951 | 2051 ft | 186 kts | 76° |
| 2026-05-06 18:28 | 51.15892 | -0.08877 | 2268 ft | 193 kts | 108° |
| 2026-05-06 18:28 | 51.15084 | -0.07155 | 2496 ft | 202 kts | 144° |
| 2026-05-06 18:28 | 51.13720 | -0.06485 | 2790 ft | 209 kts | 174° |
| 2026-05-06 18:29 | 51.12277 | -0.06438 | 2962 ft | 208 kts | 180° |
| 2026-05-06 18:29 | 51.10829 | -0.06499 | 2965 ft | 207 kts | 181° |
| 2026-05-06 18:29 | 51.09398 | -0.06580 | 2965 ft | 207 kts | 181° |
| 2026-05-06 18:29 | 51.07946 | -0.06665 | 2965 ft | 207 kts | 181° |
| 2026-05-06 18:30 | 51.06508 | -0.06813 | 2961 ft | 208 kts | 192° |
| 2026-05-06 18:30 | 51.05209 | -0.07912 | 2969 ft | 229 kts | 227° |
| 2026-05-06 18:30 | 51.04379 | -0.10230 | 2981 ft | 254 kts | 254° |
| 2026-05-06 18:30 | 51.03949 | -0.12912 | 2971 ft | 246 kts | 260° |
| 2026-05-06 18:31 | 51.03611 | -0.15516 | 2963 ft | 235 kts | 261° |
| 2026-05-06 18:31 | 51.03293 | -0.18036 | 2963 ft | 233 kts | 261° |
| 2026-05-06 18:31 | 51.02974 | -0.20564 | 2963 ft | 233 kts | 261° |
| 2026-05-06 18:31 | 51.02652 | -0.23119 | 2963 ft | 233 kts | 261° |
| 2026-05-06 18:32 | 51.02334 | -0.25649 | 2963 ft | 234 kts | 261° |
| 2026-05-06 18:32 | 51.02019 | -0.28162 | 2964 ft | 234 kts | 261° |
| 2026-05-06 18:32 | 51.01702 | -0.30697 | 2963 ft | 234 kts | 261° |
| 2026-05-06 18:32 | 51.01381 | -0.33263 | 2963 ft | 235 kts | 262° |
| 2026-05-06 18:33 | 51.01390 | -0.35820 | 2954 ft | 230 kts | 290° |
| 2026-05-06 18:33 | 51.02225 | -0.37920 | 2961 ft | 224 kts | 321° |
| 2026-05-06 18:33 | 51.03474 | -0.39379 | 2967 ft | 222 kts | 329° |
| 2026-05-06 18:33 | 51.04790 | -0.40692 | 2965 ft | 222 kts | 331° |
| 2026-05-06 18:34 | 51.06105 | -0.41963 | 2965 ft | 221 kts | 331° |
| 2026-05-06 18:34 | 51.07387 | -0.43196 | 2958 ft | 207 kts | 331° |
| 2026-05-06 18:34 | 51.08588 | -0.44272 | 2950 ft | 191 kts | 342° |
| 2026-05-06 18:34 | 51.09862 | -0.44333 | 2953 ft | 185 kts | 21° |
| 2026-05-06 18:35 | 51.10927 | -0.43183 | 2969 ft | 186 kts | 42° |
| 2026-05-06 18:35 | 51.11843 | -0.41713 | 2966 ft | 187 kts | 45° |
| 2026-05-06 18:35 | 51.12722 | -0.40210 | 2968 ft | 187 kts | 46° |
| 2026-05-06 18:35 | 51.13582 | -0.38653 | 2962 ft | 188 kts | 59° |
| 2026-05-06 18:36 | 51.13808 | -0.36604 | 2782 ft | 195 kts | 90° |
| 2026-05-06 18:36 | 51.13729 | -0.34365 | 2178 ft | 213 kts | 90° |
| 2026-05-06 18:36 | 51.13702 | -0.31960 | 1777 ft | 214 kts | 82° |
| 2026-05-06 18:36 | 51.13882 | -0.29667 | 1548 ft | 210 kts | 84° |
| 2026-05-06 18:37 | 51.13951 | -0.27335 | 1137 ft | 216 kts | 86° |
| 2026-05-06 18:37 | 51.14039 | -0.25060 | 897 ft | 192 kts | 83° |
| 2026-05-06 18:37 | 51.14225 | -0.23026 | 581 ft | 178 kts | 78° |
| 2026-05-06 18:37 | 51.14492 | -0.21243 | 356 ft | 151 kts | 73° |
| 2026-05-06 18:38 | 51.14725 | -0.19754 | 318 ft | 138 kts | 75° |
| 2026-05-06 18:38 | 51.14944 | -0.18163 | 1038 ft | 154 kts | 76° |
| 2026-05-06 18:38 | 51.15161 | -0.16466 | 1940 ft | 170 kts | 76° |
| 2026-05-06 18:38 | 51.15251 | -0.14536 | 2514 ft | 188 kts | 101° |
| 2026-05-06 18:39 | 51.14519 | -0.12765 | 2864 ft | 198 kts | 141° |
| 2026-05-06 18:39 | 51.13243 | -0.11972 | 2966 ft | 203 kts | 175° |
| 2026-05-06 18:39 | 51.11820 | -0.11988 | 2973 ft | 203 kts | 180° |
| 2026-05-06 18:40 | 51.08971 | -0.12013 | 2970 ft | 203 kts | 179° |
| 2026-05-06 18:40 | 51.07563 | -0.12098 | 2966 ft | 204 kts | 192° |
| 2026-05-06 18:40 | 51.06344 | -0.13151 | 2965 ft | 202 kts | 231° |
| 2026-05-06 18:40 | 51.05740 | -0.15126 | 2976 ft | 199 kts | 259° |
| 2026-05-06 18:41 | 51.05500 | -0.17277 | 2974 ft | 198 kts | 265° |
| 2026-05-06 18:41 | 51.05325 | -0.19449 | 2971 ft | 197 kts | 266° |
| 2026-05-06 18:41 | 51.05162 | -0.21610 | 2971 ft | 197 kts | 266° |
| 2026-05-06 18:41 | 51.05001 | -0.23760 | 2971 ft | 197 kts | 266° |
| 2026-05-06 18:42 | 51.04839 | -0.25928 | 2970 ft | 198 kts | 266° |
| 2026-05-06 18:42 | 51.04679 | -0.28083 | 2970 ft | 198 kts | 266° |
| 2026-05-06 18:42 | 51.04516 | -0.30257 | 2973 ft | 199 kts | 266° |
| 2026-05-06 18:42 | 51.04353 | -0.32436 | 2976 ft | 199 kts | 266° |
| 2026-05-06 18:43 | 51.04190 | -0.34631 | 2978 ft | 198 kts | 266° |
| 2026-05-06 18:43 | 51.04028 | -0.36813 | 2979 ft | 198 kts | 266° |
| 2026-05-06 18:43 | 51.03868 | -0.38978 | 2980 ft | 198 kts | 266° |
| 2026-05-06 18:43 | 51.03708 | -0.41160 | 2981 ft | 198 kts | 269° |
| 2026-05-06 18:44 | 51.03896 | -0.43284 | 2973 ft | 191 kts | 302° |
| 2026-05-06 18:44 | 51.04808 | -0.44716 | 2985 ft | 186 kts | 333° |
| 2026-05-06 18:44 | 51.05972 | -0.45585 | 2985 ft | 185 kts | 340° |
| 2026-05-06 18:44 | 51.07174 | -0.46341 | 2984 ft | 185 kts | 341° |
| 2026-05-06 18:45 | 51.08415 | -0.46736 | 2973 ft | 183 kts | 9° |
| 2026-05-06 18:45 | 51.09575 | -0.45904 | 2984 ft | 183 kts | 36° |
| 2026-05-06 18:45 | 51.10561 | -0.44630 | 2984 ft | 183 kts | 40° |
| 2026-05-06 18:45 | 51.11348 | -0.43068 | 2958 ft | 185 kts | 63° |
| 2026-05-06 18:46 | 51.11776 | -0.41110 | 2758 ft | 187 kts | 72° |
| 2026-05-06 18:46 | 51.12086 | -0.39096 | 2508 ft | 187 kts | 75° |
| 2026-05-06 18:46 | 51.12358 | -0.37074 | 2260 ft | 188 kts | 76° |
| 2026-05-06 18:46 | 51.12622 | -0.35075 | 2068 ft | 182 kts | 75° |
| 2026-05-06 18:47 | 51.12876 | -0.33167 | 1833 ft | 168 kts | 75° |
| 2026-05-06 18:47 | 51.13113 | -0.31425 | 1601 ft | 153 kts | 75° |
| 2026-05-06 18:47 | 51.13329 | -0.29844 | 1372 ft | 142 kts | 75° |
| 2026-05-06 18:47 | 51.13533 | -0.28359 | 1168 ft | 131 kts | 75° |
| 2026-05-06 18:48 | 51.13718 | -0.27003 | 990 ft | 120 kts | 75° |
| 2026-05-06 18:48 | 51.13895 | -0.25714 | 845 ft | 118 kts | 75° |
| 2026-05-06 18:48 | 51.14071 | -0.24435 | 697 ft | 118 kts | 76° |
| 2026-05-06 18:48 | 51.14247 | -0.23154 | 544 ft | 118 kts | 76° |
| 2026-05-06 18:49 | 51.14423 | -0.21870 | 385 ft | 118 kts | 76° |
| 2026-05-06 18:49 | 51.14600 | -0.20585 | 222 ft | 118 kts | 76° |
| 2026-05-06 18:49 | 51.14759 | -0.19448 | 200 ft | 85 kts | 77° |
| 2026-05-06 18:49 | 51.14861 | -0.18794 | 199 ft | 35 kts | 76° |
| 2026-05-06 18:50 | 51.14923 | -0.18542 | 199 ft | 22 kts | 51° |
| 2026-05-06 18:50 | 51.15020 | -0.18359 | 199 ft | 21 kts | 51° |
| 2026-05-06 18:50 | 51.15110 | -0.18178 | 199 ft | 16 kts | 57° |
| 2026-05-06 18:50 | 51.15124 | -0.18116 | 199 ft | 4 kts | 74° |
| 2026-05-06 18:51 | 51.15126 | -0.18103 | 199 ft | 0 kts | 74° |
| 2026-05-06 18:51 | 51.15129 | -0.18092 | 199 ft | 2 kts | 64° |
| 2026-05-06 18:51 | 51.15162 | -0.18065 | 199 ft | 8 kts | 356° |
| 2026-05-06 18:52 | 51.15243 | -0.18096 | 199 ft | 15 kts | 349° |
| 2026-05-06 18:52 | 51.15363 | -0.18135 | 199 ft | 20 kts | 346° |
| 2026-05-06 18:52 | 51.15510 | -0.18187 | 199 ft | 22 kts | 349° |
| 2026-05-06 18:52 | 51.15660 | -0.18218 | 199 ft | 20 kts | 40° |
| 2026-05-06 18:53 | 51.15727 | -0.18042 | 199 ft | 19 kts | 4° |
| 2026-05-06 18:53 | 51.15861 | -0.18086 | 199 ft | 19 kts | 350° |
| 2026-05-06 18:53 | 51.15997 | -0.18136 | 199 ft | 20 kts | 348° |
| 2026-05-06 18:53 | 51.16138 | -0.18180 | 199 ft | 20 kts | 348° |
| 2026-05-06 18:54 | 51.16211 | -0.18265 | 199 ft | 5 kts | 222° |
| 2026-05-06 18:54 | 51.16199 | -0.18321 | 199 ft | 6 kts | 260° |
| 2026-05-06 18:54 | 51.16196 | -0.18347 | 199 ft | 0 kts | 258° |